sensor_id;sensor_type;location;lat;lon;timestamp;temperature;humidity
35746;DHT22;21870;42.812;74.628;2023-02-23T00:01:28;7.30;99.90
35746;DHT22;21870;42.812;74.628;2023-02-23T00:03:56;7.20;99.90
35746;DHT22;21870;42.812;74.628;2023-02-23T00:06:25;7.20;99.90
35746;DHT22;21870;42.812;74.628;2023-02-23T00:08:51;7.10;99.90
35746;DHT22;21870;42.812;74.628;2023-02-23T00:11:19;7.10;99.90
35746;DHT22;21870;42.812;74.628;2023-02-23T00:13:47;6.90;99.90
35746;DHT22;21870;42.812;74.628;2023-02-23T00:16:23;7.00;99.90
35746;DHT22;21870;42.812;74.628;2023-02-23T00:18:51;7.10;99.90
35746;DHT22;21870;42.812;74.628;2023-02-23T00:21:24;7.00;99.90
35746;DHT22;21870;42.812;74.628;2023-02-23T00:23:55;7.00;99.90
35746;DHT22;21870;42.812;74.628;2023-02-23T00:26:26;7.10;99.90
35746;DHT22;21870;42.812;74.628;2023-02-23T00:28:56;7.10;99.90
35746;DHT22;21870;42.812;74.628;2023-02-23T00:31:24;7.10;99.90
35746;DHT22;21870;42.812;74.628;2023-02-23T00:33:57;7.10;99.90
35746;DHT22;21870;42.812;74.628;2023-02-23T00:36:26;7.10;99.90
35746;DHT22;21870;42.812;74.628;2023-02-23T00:38:54;6.90;99.90
35746;DHT22;21870;42.812;74.628;2023-02-23T00:41:20;6.90;99.90
35746;DHT22;21870;42.812;74.628;2023-02-23T00:43:58;7.00;99.90
35746;DHT22;21870;42.812;74.628;2023-02-23T00:46:27;7.00;99.90
35746;DHT22;21870;42.812;74.628;2023-02-23T00:48:55;7.10;99.90
35746;DHT22;21870;42.812;74.628;2023-02-23T00:51:23;7.00;99.90
35746;DHT22;21870;42.812;74.628;2023-02-23T00:53:52;7.00;99.90
35746;DHT22;21870;42.812;74.628;2023-02-23T00:56:19;7.10;99.90
35746;DHT22;21870;42.812;74.628;2023-02-23T00:58:46;7.10;99.90
35746;DHT22;21870;42.812;74.628;2023-02-23T01:01:13;7.20;99.90
35746;DHT22;21870;42.812;74.628;2023-02-23T01:03:40;7.20;99.90
35746;DHT22;21870;42.812;74.628;2023-02-23T01:06:10;7.20;99.90
35746;DHT22;21870;42.812;74.628;2023-02-23T01:08:39;7.20;99.90
35746;DHT22;21870;42.812;74.628;2023-02-23T01:13:37;7.10;99.90
35746;DHT22;21870;42.812;74.628;2023-02-23T01:16:08;7.10;99.90
35746;DHT22;21870;42.812;74.628;2023-02-23T01:18:39;7.00;99.90
35746;DHT22;21870;42.812;74.628;2023-02-23T01:21:18;6.90;99.90
35746;DHT22;21870;42.812;74.628;2023-02-23T01:23:45;6.80;99.90
35746;DHT22;21870;42.812;74.628;2023-02-23T01:26:23;6.70;99.90
35746;DHT22;21870;42.812;74.628;2023-02-23T01:28:55;6.70;99.90
35746;DHT22;21870;42.812;74.628;2023-02-23T01:31:23;6.60;99.90
35746;DHT22;21870;42.812;74.628;2023-02-23T01:33:54;6.70;99.90
35746;DHT22;21870;42.812;74.628;2023-02-23T01:36:20;6.60;99.90
35746;DHT22;21870;42.812;74.628;2023-02-23T01:38:48;6.70;99.90
35746;DHT22;21870;42.812;74.628;2023-02-23T01:41:15;6.60;99.90
35746;DHT22;21870;42.812;74.628;2023-02-23T01:46:25;6.90;99.90
35746;DHT22;21870;42.812;74.628;2023-02-23T01:48:53;7.00;99.90
35746;DHT22;21870;42.812;74.628;2023-02-23T01:51:24;7.20;99.90
35746;DHT22;21870;42.812;74.628;2023-02-23T01:54:17;7.30;99.90
35746;DHT22;21870;42.812;74.628;2023-02-23T01:56:46;7.40;99.90
35746;DHT22;21870;42.812;74.628;2023-02-23T01:59:27;7.50;99.90
35746;DHT22;21870;42.812;74.628;2023-02-23T02:01:54;7.40;99.90
35746;DHT22;21870;42.812;74.628;2023-02-23T02:04:21;7.50;99.90
35746;DHT22;21870;42.812;74.628;2023-02-23T02:06:50;7.60;99.90
35746;DHT22;21870;42.812;74.628;2023-02-23T02:09:19;7.70;99.90
35746;DHT22;21870;42.812;74.628;2023-02-23T02:11:50;7.80;99.90
35746;DHT22;21870;42.812;74.628;2023-02-23T02:14:26;7.80;99.90
35746;DHT22;21870;42.812;74.628;2023-02-23T02:25:48;8.00;99.90
35746;DHT22;21870;42.812;74.628;2023-02-23T02:34:33;8.10;99.90
35746;DHT22;21870;42.812;74.628;2023-02-23T02:43:10;8.10;99.90
35746;DHT22;21870;42.812;74.628;2023-02-23T02:48:38;8.20;99.90
35746;DHT22;21870;42.812;74.628;2023-02-23T02:51:21;8.30;99.90
35746;DHT22;21870;42.812;74.628;2023-02-23T02:54:09;8.40;99.90
35746;DHT22;21870;42.812;74.628;2023-02-23T02:56:41;8.60;99.90
35746;DHT22;21870;42.812;74.628;2023-02-23T02:59:13;8.80;99.90
35746;DHT22;21870;42.812;74.628;2023-02-23T03:01:58;8.90;99.90
35746;DHT22;21870;42.812;74.628;2023-02-23T03:04:43;9.00;99.90
35746;DHT22;21870;42.812;74.628;2023-02-23T03:10:54;9.50;99.90
35746;DHT22;21870;42.812;74.628;2023-02-23T03:17:23;9.60;99.90
35746;DHT22;21870;42.812;74.628;2023-02-23T03:20:29;9.70;99.90
35746;DHT22;21870;42.812;74.628;2023-02-23T03:29:15;10.10;99.90
35746;DHT22;21870;42.812;74.628;2023-02-23T03:32:10;10.30;99.90
35746;DHT22;21870;42.812;74.628;2023-02-23T03:35:06;10.50;99.90
35746;DHT22;21870;42.812;74.628;2023-02-23T03:38:02;10.50;99.90
35746;DHT22;21870;42.812;74.628;2023-02-23T03:40:50;10.70;99.90
35746;DHT22;21870;42.812;74.628;2023-02-23T03:43:46;10.70;99.90
35746;DHT22;21870;42.812;74.628;2023-02-23T03:46:32;10.90;99.90
35746;DHT22;21870;42.812;74.628;2023-02-23T03:49:20;11.20;99.90
35746;DHT22;21870;42.812;74.628;2023-02-23T03:52:11;11.20;99.90
35746;DHT22;21870;42.812;74.628;2023-02-23T03:55:15;11.40;99.90
35746;DHT22;21870;42.812;74.628;2023-02-23T03:58:02;11.60;99.90
35746;DHT22;21870;42.812;74.628;2023-02-23T04:00:49;11.70;99.90
35746;DHT22;21870;42.812;74.628;2023-02-23T04:03:37;11.80;99.90
35746;DHT22;21870;42.812;74.628;2023-02-23T04:06:26;11.90;99.90
35746;DHT22;21870;42.812;74.628;2023-02-23T04:09:11;12.00;99.90
35746;DHT22;21870;42.812;74.628;2023-02-23T04:14:58;11.90;99.90
35746;DHT22;21870;42.812;74.628;2023-02-23T04:17:27;11.90;99.90
35746;DHT22;21870;42.812;74.628;2023-02-23T04:19:55;12.10;99.90
35746;DHT22;21870;42.812;74.628;2023-02-23T04:22:22;12.30;99.90
35746;DHT22;21870;42.812;74.628;2023-02-23T04:24:48;12.50;99.90
35746;DHT22;21870;42.812;74.628;2023-02-23T04:27:16;12.60;99.90
35746;DHT22;21870;42.812;74.628;2023-02-23T04:29:42;12.50;99.90
35746;DHT22;21870;42.812;74.628;2023-02-23T04:32:21;12.70;99.90
35746;DHT22;21870;42.812;74.628;2023-02-23T04:34:47;12.80;99.90
35746;DHT22;21870;42.812;74.628;2023-02-23T04:37:13;12.90;99.90
35746;DHT22;21870;42.812;74.628;2023-02-23T04:39:40;12.80;99.90
35746;DHT22;21870;42.812;74.628;2023-02-23T04:42:07;13.10;99.90
35746;DHT22;21870;42.812;74.628;2023-02-23T04:44:34;13.50;99.90
35746;DHT22;21870;42.812;74.628;2023-02-23T04:47:00;13.60;99.90
35746;DHT22;21870;42.812;74.628;2023-02-23T04:49:26;13.60;99.90
35746;DHT22;21870;42.812;74.628;2023-02-23T04:51:53;13.90;99.90
35746;DHT22;21870;42.812;74.628;2023-02-23T04:54:19;14.00;99.90
35746;DHT22;21870;42.812;74.628;2023-02-23T04:56:45;14.20;99.90
35746;DHT22;21870;42.812;74.628;2023-02-23T04:59:11;14.30;99.90
35746;DHT22;21870;42.812;74.628;2023-02-23T05:01:37;14.30;99.90
35746;DHT22;21870;42.812;74.628;2023-02-23T05:04:04;14.20;99.90
35746;DHT22;21870;42.812;74.628;2023-02-23T05:06:31;14.20;99.90
35746;DHT22;21870;42.812;74.628;2023-02-23T05:08:57;14.40;99.90
35746;DHT22;21870;42.812;74.628;2023-02-23T05:11:23;14.40;99.90
35746;DHT22;21870;42.812;74.628;2023-02-23T05:13:51;14.40;99.90
35746;DHT22;21870;42.812;74.628;2023-02-23T05:16:17;14.70;99.90
35746;DHT22;21870;42.812;74.628;2023-02-23T05:18:43;14.60;99.90
35746;DHT22;21870;42.812;74.628;2023-02-23T05:21:10;14.60;99.90
35746;DHT22;21870;42.812;74.628;2023-02-23T05:23:37;14.70;99.90
35746;DHT22;21870;42.812;74.628;2023-02-23T05:26:05;14.80;99.90
35746;DHT22;21870;42.812;74.628;2023-02-23T05:28:33;14.90;99.90
35746;DHT22;21870;42.812;74.628;2023-02-23T05:31:00;15.00;99.90
35746;DHT22;21870;42.812;74.628;2023-02-23T05:33:29;15.20;99.90
35746;DHT22;21870;42.812;74.628;2023-02-23T05:35:58;15.20;99.90
35746;DHT22;21870;42.812;74.628;2023-02-23T05:38:25;15.30;99.90
35746;DHT22;21870;42.812;74.628;2023-02-23T05:40:54;15.30;99.90
35746;DHT22;21870;42.812;74.628;2023-02-23T05:43:20;15.50;99.90
35746;DHT22;21870;42.812;74.628;2023-02-23T05:45:46;15.50;99.90
35746;DHT22;21870;42.812;74.628;2023-02-23T05:48:12;15.30;99.90
35746;DHT22;21870;42.812;74.628;2023-02-23T05:50:39;15.40;99.90
35746;DHT22;21870;42.812;74.628;2023-02-23T05:53:05;15.50;99.90
35746;DHT22;21870;42.812;74.628;2023-02-23T05:55:31;15.50;99.90
35746;DHT22;21870;42.812;74.628;2023-02-23T05:57:57;15.70;99.90
35746;DHT22;21870;42.812;74.628;2023-02-23T06:00:23;15.80;99.90
35746;DHT22;21870;42.812;74.628;2023-02-23T06:02:49;16.00;99.90
35746;DHT22;21870;42.812;74.628;2023-02-23T06:05:17;15.80;99.90
35746;DHT22;21870;42.812;74.628;2023-02-23T06:07:44;16.00;99.90
35746;DHT22;21870;42.812;74.628;2023-02-23T06:10:10;15.90;99.90
35746;DHT22;21870;42.812;74.628;2023-02-23T06:12:36;16.30;99.90
35746;DHT22;21870;42.812;74.628;2023-02-23T06:15:03;16.50;99.90
35746;DHT22;21870;42.812;74.628;2023-02-23T06:17:29;16.70;99.90
35746;DHT22;21870;42.812;74.628;2023-02-23T06:19:55;16.60;99.90
35746;DHT22;21870;42.812;74.628;2023-02-23T06:22:21;16.50;99.90
35746;DHT22;21870;42.812;74.628;2023-02-23T06:24:47;16.60;99.90
35746;DHT22;21870;42.812;74.628;2023-02-23T06:27:14;16.90;99.90
35746;DHT22;21870;42.812;74.628;2023-02-23T06:29:40;17.00;99.90
35746;DHT22;21870;42.812;74.628;2023-02-23T06:32:06;17.10;99.90
35746;DHT22;21870;42.812;74.628;2023-02-23T06:34:32;17.30;99.90
35746;DHT22;21870;42.812;74.628;2023-02-23T06:36:59;17.20;99.90
35746;DHT22;21870;42.812;74.628;2023-02-23T06:39:25;17.30;99.90
35746;DHT22;21870;42.812;74.628;2023-02-23T06:41:54;17.40;99.90
35746;DHT22;21870;42.812;74.628;2023-02-23T06:44:20;17.50;99.90
35746;DHT22;21870;42.812;74.628;2023-02-23T06:46:47;17.70;99.90
35746;DHT22;21870;42.812;74.628;2023-02-23T06:49:13;17.70;99.90
35746;DHT22;21870;42.812;74.628;2023-02-23T06:51:39;18.10;99.90
35746;DHT22;21870;42.812;74.628;2023-02-23T06:54:05;18.20;99.90
35746;DHT22;21870;42.812;74.628;2023-02-23T06:56:31;18.00;99.90
35746;DHT22;21870;42.812;74.628;2023-02-23T06:58:57;18.00;99.90
35746;DHT22;21870;42.812;74.628;2023-02-23T07:01:23;18.30;99.90
35746;DHT22;21870;42.812;74.628;2023-02-23T07:03:49;18.50;99.90
35746;DHT22;21870;42.812;74.628;2023-02-23T07:06:15;18.40;99.90
35746;DHT22;21870;42.812;74.628;2023-02-23T07:08:41;18.40;99.90
35746;DHT22;21870;42.812;74.628;2023-02-23T07:11:13;18.60;99.90
35746;DHT22;21870;42.812;74.628;2023-02-23T07:13:40;18.70;99.90
35746;DHT22;21870;42.812;74.628;2023-02-23T07:16:07;18.80;99.90
35746;DHT22;21870;42.812;74.628;2023-02-23T07:18:34;18.80;99.90
35746;DHT22;21870;42.812;74.628;2023-02-23T07:21:00;18.70;99.90
35746;DHT22;21870;42.812;74.628;2023-02-23T07:23:26;18.90;99.90
35746;DHT22;21870;42.812;74.628;2023-02-23T07:25:53;19.20;99.90
35746;DHT22;21870;42.812;74.628;2023-02-23T07:28:25;19.40;99.90
35746;DHT22;21870;42.812;74.628;2023-02-23T07:30:57;19.20;99.90
35746;DHT22;21870;42.812;74.628;2023-02-23T07:33:24;19.50;99.90
35746;DHT22;21870;42.812;74.628;2023-02-23T07:35:51;19.90;99.90
35746;DHT22;21870;42.812;74.628;2023-02-23T07:38:17;20.00;99.90
35746;DHT22;21870;42.812;74.628;2023-02-23T07:40:43;19.80;99.90
35746;DHT22;21870;42.812;74.628;2023-02-23T07:43:12;19.60;99.90
35746;DHT22;21870;42.812;74.628;2023-02-23T07:45:38;19.70;99.90
35746;DHT22;21870;42.812;74.628;2023-02-23T07:48:04;19.70;99.90
35746;DHT22;21870;42.812;74.628;2023-02-23T07:50:31;19.70;99.90
35746;DHT22;21870;42.812;74.628;2023-02-23T07:52:57;19.60;99.90
35746;DHT22;21870;42.812;74.628;2023-02-23T07:55:24;20.00;99.90
35746;DHT22;21870;42.812;74.628;2023-02-23T07:57:50;20.40;99.90
35746;DHT22;21870;42.812;74.628;2023-02-23T08:00:17;20.50;97.60
35746;DHT22;21870;42.812;74.628;2023-02-23T08:02:43;20.40;99.30
35746;DHT22;21870;42.812;74.628;2023-02-23T08:05:09;20.50;99.50
35746;DHT22;21870;42.812;74.628;2023-02-23T08:07:36;20.70;97.60
35746;DHT22;21870;42.812;74.628;2023-02-23T08:10:02;21.00;97.20
35746;DHT22;21870;42.812;74.628;2023-02-23T08:12:31;20.90;96.80
35746;DHT22;21870;42.812;74.628;2023-02-23T08:14:58;20.90;96.90
35746;DHT22;21870;42.812;74.628;2023-02-23T08:17:24;20.80;96.80
35746;DHT22;21870;42.812;74.628;2023-02-23T08:19:53;21.10;98.40
35746;DHT22;21870;42.812;74.628;2023-02-23T08:22:19;21.50;97.90
35746;DHT22;21870;42.812;74.628;2023-02-23T08:24:49;21.40;96.40
35746;DHT22;21870;42.812;74.628;2023-02-23T08:27:18;21.30;94.90
35746;DHT22;21870;42.812;74.628;2023-02-23T08:29:44;21.30;94.70
35746;DHT22;21870;42.812;74.628;2023-02-23T08:32:10;21.50;94.90
35746;DHT22;21870;42.812;74.628;2023-02-23T08:34:40;21.70;96.20
35746;DHT22;21870;42.812;74.628;2023-02-23T08:37:07;21.80;96.30
35746;DHT22;21870;42.812;74.628;2023-02-23T08:39:35;21.90;95.60
35746;DHT22;21870;42.812;74.628;2023-02-23T08:42:02;22.00;95.30
35746;DHT22;21870;42.812;74.628;2023-02-23T08:44:28;22.10;95.50
35746;DHT22;21870;42.812;74.628;2023-02-23T08:46:55;22.10;95.60
35746;DHT22;21870;42.812;74.628;2023-02-23T08:49:24;22.20;94.80
35746;DHT22;21870;42.812;74.628;2023-02-23T08:51:50;22.00;93.80
35746;DHT22;21870;42.812;74.628;2023-02-23T08:54:17;21.90;94.20
35746;DHT22;21870;42.812;74.628;2023-02-23T08:56:45;21.90;93.60
35746;DHT22;21870;42.812;74.628;2023-02-23T08:59:12;22.00;94.00
35746;DHT22;21870;42.812;74.628;2023-02-23T09:01:38;21.90;94.70
35746;DHT22;21870;42.812;74.628;2023-02-23T09:04:05;21.50;93.70
35746;DHT22;21870;42.812;74.628;2023-02-23T09:06:32;21.70;93.80
35746;DHT22;21870;42.812;74.628;2023-02-23T09:09:00;21.80;93.30
35746;DHT22;21870;42.812;74.628;2023-02-23T09:11:26;21.90;91.90
35746;DHT22;21870;42.812;74.628;2023-02-23T09:13:53;22.10;92.70
35746;DHT22;21870;42.812;74.628;2023-02-23T09:16:19;22.30;92.20
35746;DHT22;21870;42.812;74.628;2023-02-23T09:18:45;22.10;92.10
35746;DHT22;21870;42.812;74.628;2023-02-23T09:21:16;22.40;91.60
35746;DHT22;21870;42.812;74.628;2023-02-23T09:23:51;22.50;90.60
35746;DHT22;21870;42.812;74.628;2023-02-23T09:26:21;22.60;90.60
35746;DHT22;21870;42.812;74.628;2023-02-23T09:28:48;22.00;91.90
35746;DHT22;21870;42.812;74.628;2023-02-23T09:31:20;21.30;92.30
35746;DHT22;21870;42.812;74.628;2023-02-23T09:33:47;21.00;93.10
35746;DHT22;21870;42.812;74.628;2023-02-23T09:36:16;20.80;93.50
35746;DHT22;21870;42.812;74.628;2023-02-23T09:38:43;20.60;93.70
35746;DHT22;21870;42.812;74.628;2023-02-23T09:49:24;20.10;95.90
35746;DHT22;21870;42.812;74.628;2023-02-23T09:51:57;20.30;96.00
35746;DHT22;21870;42.812;74.628;2023-02-23T09:54:29;20.20;96.40
35746;DHT22;21870;42.812;74.628;2023-02-23T09:57:03;20.00;96.70
35746;DHT22;21870;42.812;74.628;2023-02-23T09:59:29;19.90;96.80
35746;DHT22;21870;42.812;74.628;2023-02-23T10:01:57;19.80;97.60
35746;DHT22;21870;42.812;74.628;2023-02-23T10:04:29;19.60;98.00
35746;DHT22;21870;42.812;74.628;2023-02-23T10:12:46;19.00;98.30
35746;DHT22;21870;42.812;74.628;2023-02-23T10:23:42;18.70;98.60
35746;DHT22;21870;42.812;74.628;2023-02-23T10:26:19;18.30;99.10
35746;DHT22;21870;42.812;74.628;2023-02-23T10:28:46;18.30;99.40
35746;DHT22;21870;42.812;74.628;2023-02-23T10:31:41;18.20;99.90
35746;DHT22;21870;42.812;74.628;2023-02-23T10:34:16;18.10;99.90
35746;DHT22;21870;42.812;74.628;2023-02-23T10:37:00;18.00;99.90
35746;DHT22;21870;42.812;74.628;2023-02-23T10:39:31;17.70;99.90
35746;DHT22;21870;42.812;74.628;2023-02-23T10:42:01;17.70;99.90
35746;DHT22;21870;42.812;74.628;2023-02-23T10:44:29;17.40;99.90
35746;DHT22;21870;42.812;74.628;2023-02-23T10:47:23;17.20;99.90
35746;DHT22;21870;42.812;74.628;2023-02-23T10:49:53;16.90;99.90
35746;DHT22;21870;42.812;74.628;2023-02-23T10:52:34;16.80;99.90
35746;DHT22;21870;42.812;74.628;2023-02-23T10:55:04;16.80;99.90
35746;DHT22;21870;42.812;74.628;2023-02-23T10:57:37;16.70;99.90
35746;DHT22;21870;42.812;74.628;2023-02-23T11:02:36;16.80;99.90
35746;DHT22;21870;42.812;74.628;2023-02-23T11:05:06;16.70;99.90
35746;DHT22;21870;42.812;74.628;2023-02-23T11:07:33;16.80;99.90
35746;DHT22;21870;42.812;74.628;2023-02-23T11:10:25;16.60;99.90
35746;DHT22;21870;42.812;74.628;2023-02-23T11:12:51;16.60;99.90
35746;DHT22;21870;42.812;74.628;2023-02-23T11:18:04;16.50;99.90
35746;DHT22;21870;42.812;74.628;2023-02-23T11:20:40;16.30;99.90
35746;DHT22;21870;42.812;74.628;2023-02-23T11:23:35;16.20;99.90
35746;DHT22;21870;42.812;74.628;2023-02-23T11:26:16;16.10;99.90
35746;DHT22;21870;42.812;74.628;2023-02-23T11:28:51;16.00;99.90
35746;DHT22;21870;42.812;74.628;2023-02-23T11:31:21;16.00;99.90
35746;DHT22;21870;42.812;74.628;2023-02-23T11:33:53;15.90;99.90
35746;DHT22;21870;42.812;74.628;2023-02-23T11:39:06;15.80;99.90
35746;DHT22;21870;42.812;74.628;2023-02-23T11:41:33;15.80;99.90
35746;DHT22;21870;42.812;74.628;2023-02-23T11:44:01;15.70;99.90
35746;DHT22;21870;42.812;74.628;2023-02-23T11:46:30;15.60;99.90
35746;DHT22;21870;42.812;74.628;2023-02-23T11:49:03;15.60;99.90
35746;DHT22;21870;42.812;74.628;2023-02-23T11:51:32;15.50;99.90
35746;DHT22;21870;42.812;74.628;2023-02-23T11:53:59;15.40;99.90
35746;DHT22;21870;42.812;74.628;2023-02-23T11:56:28;15.40;99.90
35746;DHT22;21870;42.812;74.628;2023-02-23T11:59:12;15.40;99.90
35746;DHT22;21870;42.812;74.628;2023-02-23T12:01:47;15.30;99.90
35746;DHT22;21870;42.812;74.628;2023-02-23T12:04:30;15.20;99.90
35746;DHT22;21870;42.812;74.628;2023-02-23T12:09:46;15.00;99.90
35746;DHT22;21870;42.812;74.628;2023-02-23T12:12:16;14.90;99.90
35746;DHT22;21870;42.812;74.628;2023-02-23T12:14:45;14.90;99.90
35746;DHT22;21870;42.812;74.628;2023-02-23T12:17:27;14.90;99.90
35746;DHT22;21870;42.812;74.628;2023-02-23T12:20:19;14.80;99.90
35746;DHT22;21870;42.812;74.628;2023-02-23T12:23:08;14.80;99.90
35746;DHT22;21870;42.812;74.628;2023-02-23T12:25:44;14.70;99.90
35746;DHT22;21870;42.812;74.628;2023-02-23T12:28:37;14.60;99.90
35746;DHT22;21870;42.812;74.628;2023-02-23T12:33:58;14.40;99.90
35746;DHT22;21870;42.812;74.628;2023-02-23T12:36:45;14.30;99.90
35746;DHT22;21870;42.812;74.628;2023-02-23T12:41:54;14.10;99.90
35746;DHT22;21870;42.812;74.628;2023-02-23T12:44:43;13.90;99.90
35746;DHT22;21870;42.812;74.628;2023-02-23T12:50:41;13.50;99.90
35746;DHT22;21870;42.812;74.628;2023-02-23T12:53:16;13.20;99.90
35746;DHT22;21870;42.812;74.628;2023-02-23T12:58:49;12.70;99.90
35746;DHT22;21870;42.812;74.628;2023-02-23T13:01:28;12.60;99.90
35746;DHT22;21870;42.812;74.628;2023-02-23T13:04:25;12.50;99.90
35746;DHT22;21870;42.812;74.628;2023-02-23T13:07:20;12.40;99.90
35746;DHT22;21870;42.812;74.628;2023-02-23T13:15:09;12.00;99.90
35746;DHT22;21870;42.812;74.628;2023-02-23T13:18:08;11.90;99.90
35746;DHT22;21870;42.812;74.628;2023-02-23T13:20:36;11.80;99.90
35746;DHT22;21870;42.812;74.628;2023-02-23T13:29:00;11.50;99.90
35746;DHT22;21870;42.812;74.628;2023-02-23T13:31:37;11.40;99.90
35746;DHT22;21870;42.812;74.628;2023-02-23T13:34:08;11.30;99.90
35746;DHT22;21870;42.812;74.628;2023-02-23T13:36:36;11.30;99.90
35746;DHT22;21870;42.812;74.628;2023-02-23T13:47:30;11.00;99.90
35746;DHT22;21870;42.812;74.628;2023-02-23T13:52:53;10.70;99.90
35746;DHT22;21870;42.812;74.628;2023-02-23T13:58:14;10.60;99.90
35746;DHT22;21870;42.812;74.628;2023-02-23T14:00:42;10.60;99.90
35746;DHT22;21870;42.812;74.628;2023-02-23T14:03:24;10.70;99.90
35746;DHT22;21870;42.812;74.628;2023-02-23T14:05:55;10.90;99.90
35746;DHT22;21870;42.812;74.628;2023-02-23T14:08:37;11.00;99.90
35746;DHT22;21870;42.812;74.628;2023-02-23T14:11:05;11.10;99.90
35746;DHT22;21870;42.812;74.628;2023-02-23T14:13:33;11.20;99.90
35746;DHT22;21870;42.812;74.628;2023-02-23T14:16:09;11.10;99.90
35746;DHT22;21870;42.812;74.628;2023-02-23T14:18:52;11.00;99.90
35746;DHT22;21870;42.812;74.628;2023-02-23T14:24:25;11.00;99.90
35746;DHT22;21870;42.812;74.628;2023-02-23T14:29:30;11.00;99.90
35746;DHT22;21870;42.812;74.628;2023-02-23T14:42:43;11.20;99.90
35746;DHT22;21870;42.812;74.628;2023-02-23T14:45:24;11.10;99.90
35746;DHT22;21870;42.812;74.628;2023-02-23T14:47:55;11.00;99.90
35746;DHT22;21870;42.812;74.628;2023-02-23T14:50:33;10.80;99.90
35746;DHT22;21870;42.812;74.628;2023-02-23T14:53:00;10.70;99.90
35746;DHT22;21870;42.812;74.628;2023-02-23T14:55:33;10.70;99.90
35746;DHT22;21870;42.812;74.628;2023-02-23T14:58:26;10.50;99.90
35746;DHT22;21870;42.812;74.628;2023-02-23T15:00:53;10.60;99.90
35746;DHT22;21870;42.812;74.628;2023-02-23T15:03:19;10.40;99.90
35746;DHT22;21870;42.812;74.628;2023-02-23T15:05:49;10.40;99.90
35746;DHT22;21870;42.812;74.628;2023-02-23T15:08:21;10.30;99.90
35746;DHT22;21870;42.812;74.628;2023-02-23T15:10:58;10.20;99.90
35746;DHT22;21870;42.812;74.628;2023-02-23T15:13:34;10.20;99.90
35746;DHT22;21870;42.812;74.628;2023-02-23T15:16:08;10.00;99.90
35746;DHT22;21870;42.812;74.628;2023-02-23T15:18:38;9.90;99.90
35746;DHT22;21870;42.812;74.628;2023-02-23T15:21:25;9.90;99.90
35746;DHT22;21870;42.812;74.628;2023-02-23T15:24:02;9.90;99.90
35746;DHT22;21870;42.812;74.628;2023-02-23T15:26:33;10.00;99.90
35746;DHT22;21870;42.812;74.628;2023-02-23T15:29:21;10.00;99.90
35746;DHT22;21870;42.812;74.628;2023-02-23T15:31:50;10.00;99.90
35746;DHT22;21870;42.812;74.628;2023-02-23T15:34:22;9.80;99.90
35746;DHT22;21870;42.812;74.628;2023-02-23T15:37:00;9.80;99.90
35746;DHT22;21870;42.812;74.628;2023-02-23T15:39:47;9.70;99.90
35746;DHT22;21870;42.812;74.628;2023-02-23T15:42:41;9.80;99.90
35746;DHT22;21870;42.812;74.628;2023-02-23T15:48:03;10.00;99.90
35746;DHT22;21870;42.812;74.628;2023-02-23T15:50:33;10.20;99.90
35746;DHT22;21870;42.812;74.628;2023-02-23T15:53:05;10.20;99.90
35746;DHT22;21870;42.812;74.628;2023-02-23T15:55:39;10.20;99.90
35746;DHT22;21870;42.812;74.628;2023-02-23T15:58:23;10.30;99.90
35746;DHT22;21870;42.812;74.628;2023-02-23T16:01:20;10.40;99.90
35746;DHT22;21870;42.812;74.628;2023-02-23T16:07:14;10.40;99.90
35746;DHT22;21870;42.812;74.628;2023-02-23T16:09:51;10.40;99.90
35746;DHT22;21870;42.812;74.628;2023-02-23T16:12:19;10.50;99.90
35746;DHT22;21870;42.812;74.628;2023-02-23T16:15:28;10.70;99.90
35746;DHT22;21870;42.812;74.628;2023-02-23T16:18:02;10.70;99.90
35746;DHT22;21870;42.812;74.628;2023-02-23T16:20:39;10.80;99.90
35746;DHT22;21870;42.812;74.628;2023-02-23T16:28:33;10.90;99.90
35746;DHT22;21870;42.812;74.628;2023-02-23T16:31:01;10.90;99.90
35746;DHT22;21870;42.812;74.628;2023-02-23T16:33:30;10.90;99.90
35746;DHT22;21870;42.812;74.628;2023-02-23T16:36:21;10.80;99.90
35746;DHT22;21870;42.812;74.628;2023-02-23T16:39:02;10.90;99.90
35746;DHT22;21870;42.812;74.628;2023-02-23T16:41:31;10.80;99.90
35746;DHT22;21870;42.812;74.628;2023-02-23T16:44:02;10.90;99.90
35746;DHT22;21870;42.812;74.628;2023-02-23T16:46:32;10.90;99.90
35746;DHT22;21870;42.812;74.628;2023-02-23T16:49:02;10.90;99.90
35746;DHT22;21870;42.812;74.628;2023-02-23T16:51:35;10.90;99.90
35746;DHT22;21870;42.812;74.628;2023-02-23T16:54:01;10.90;99.90
35746;DHT22;21870;42.812;74.628;2023-02-23T16:56:32;11.00;99.90
35746;DHT22;21870;42.812;74.628;2023-02-23T16:59:01;11.00;99.90
35746;DHT22;21870;42.812;74.628;2023-02-23T17:01:28;11.00;99.90
35746;DHT22;21870;42.812;74.628;2023-02-23T17:03:55;10.90;99.90
35746;DHT22;21870;42.812;74.628;2023-02-23T17:06:23;10.80;99.90
35746;DHT22;21870;42.812;74.628;2023-02-23T17:08:49;10.80;99.90
35746;DHT22;21870;42.812;74.628;2023-02-23T17:11:15;10.70;99.90
35746;DHT22;21870;42.812;74.628;2023-02-23T17:13:41;10.60;99.90
35746;DHT22;21870;42.812;74.628;2023-02-23T17:16:10;10.50;99.90
35746;DHT22;21870;42.812;74.628;2023-02-23T17:18:37;10.40;99.90
35746;DHT22;21870;42.812;74.628;2023-02-23T17:21:09;10.30;99.90
35746;DHT22;21870;42.812;74.628;2023-02-23T17:23:38;10.20;99.90
35746;DHT22;21870;42.812;74.628;2023-02-23T17:26:13;10.10;99.90
35746;DHT22;21870;42.812;74.628;2023-02-23T17:28:40;10.00;99.90
35746;DHT22;21870;42.812;74.628;2023-02-23T17:31:06;10.10;99.90
35746;DHT22;21870;42.812;74.628;2023-02-23T17:33:33;10.00;99.90
35746;DHT22;21870;42.812;74.628;2023-02-23T17:36:04;10.10;99.90
35746;DHT22;21870;42.812;74.628;2023-02-23T17:38:31;10.10;99.90
35746;DHT22;21870;42.812;74.628;2023-02-23T17:41:06;10.00;99.90
35746;DHT22;21870;42.812;74.628;2023-02-23T17:43:33;9.90;99.90
35746;DHT22;21870;42.812;74.628;2023-02-23T17:45:59;9.90;99.90
35746;DHT22;21870;42.812;74.628;2023-02-23T17:48:26;9.90;99.90
35746;DHT22;21870;42.812;74.628;2023-02-23T17:50:59;9.90;99.90
35746;DHT22;21870;42.812;74.628;2023-02-23T17:53:28;9.90;99.90
35746;DHT22;21870;42.812;74.628;2023-02-23T17:55:54;10.10;99.90
35746;DHT22;21870;42.812;74.628;2023-02-23T17:58:20;10.20;99.90
35746;DHT22;21870;42.812;74.628;2023-02-23T18:00:55;10.20;99.90
35746;DHT22;21870;42.812;74.628;2023-02-23T18:03:23;10.30;99.90
35746;DHT22;21870;42.812;74.628;2023-02-23T18:05:49;10.40;99.90
35746;DHT22;21870;42.812;74.628;2023-02-23T18:08:17;10.50;99.90
35746;DHT22;21870;42.812;74.628;2023-02-23T18:10:52;10.60;99.90
35746;DHT22;21870;42.812;74.628;2023-02-23T18:13:22;10.70;99.90